Time;durP1;ratioP1;P1;durP2;ratioP2;P2;SDS_P1;SDS_P2;PMS_P1;PMS_P2;Temp;Humidity;BMP_temperature;BMP_pressure;BME280_temperature;BME280_humidity;BME280_pressure;Samples;Min_cycle;Max_cycle;Signal;HPM_P1;HPM_P2
2024/04/08 00:01:31;;;;;;;4.45;2.17;;;;;;;;;;5348355;26;20336;-83
2024/04/08 00:04:02;;;;;;;5.95;2.40;;;;;;;;;;5348540;26;20425;-82
2024/04/08 00:06:28;;;;;;;5.53;1.90;;;;;;;;;;5347993;26;20400;-82
2024/04/08 00:08:54;;;;;;;4.47;2.10;;;;;;;;;;5348153;26;20344;-82
2024/04/08 00:11:20;;;;;;;5.28;2.10;;;;;;;;;;5341991;26;20353;-82
2024/04/08 00:13:46;;;;;;;4.53;2.00;;;;;;;;;;5348097;26;20336;-82
2024/04/08 00:16:12;;;;;;;4.85;2.28;;;;;;;;;;5347585;26;20333;-82
2024/04/08 00:18:38;;;;;;;8.73;2.30;;;;;;;;;;5347399;26;20679;-82
2024/04/08 00:21:05;;;;;;;7.45;2.17;;;;;;;;;;5348366;26;20352;-82
2024/04/08 00:23:31;;;;;;;5.13;1.83;;;;;;;;;;5347761;26;20436;-82
2024/04/08 00:26:01;;;;;;;5.07;1.90;;;;;;;;;;5337426;26;20425;-81
2024/04/08 00:28:27;;;;;;;2.75;1.67;;;;;;;;;;5336239;26;20392;-82
2024/04/08 00:31:00;;;;;;;4.35;1.90;;;;;;;;;;5348510;26;20392;-82
2024/04/08 00:33:26;;;;;;;4.03;1.85;;;;;;;;;;5347474;26;20369;-82
2024/04/08 00:35:52;;;;;;;7.32;2.10;;;;;;;;;;5347424;26;20353;-82
2024/04/08 00:38:18;;;;;;;6.55;2.13;;;;;;;;;;5347424;26;20432;-82
2024/04/08 00:40:44;;;;;;;5.80;2.00;;;;;;;;;;5347901;26;20340;-82
2024/04/08 00:43:10;;;;;;;3.97;2.03;;;;;;;;;;5343149;26;20415;-82
2024/04/08 00:45:36;;;;;;;4.97;2.00;;;;;;;;;;5337470;26;20418;-82
2024/04/08 00:48:03;;;;;;;8.70;2.00;;;;;;;;;;5323301;26;20361;-82
2024/04/08 00:50:29;;;;;;;4.20;1.70;;;;;;;;;;5347100;26;20893;-82
2024/04/08 00:52:55;;;;;;;4.75;1.90;;;;;;;;;;5339003;26;20682;-82
2024/04/08 00:55:21;;;;;;;4.37;1.70;;;;;;;;;;5331071;26;20332;-82
2024/04/08 00:57:49;;;;;;;5.85;2.13;;;;;;;;;;5347501;26;20376;-82
2024/04/08 01:00:15;;;;;;;5.47;1.90;;;;;;;;;;5348142;26;20429;-82
2024/04/08 01:02:41;;;;;;;4.88;1.88;;;;;;;;;;5347520;26;20345;-82
2024/04/08 01:05:13;;;;;;;4.00;1.88;;;;;;;;;;5351048;26;20893;-82
2024/04/08 01:07:39;;;;;;;5.85;1.80;;;;;;;;;;5350907;26;20464;-82
2024/04/08 01:10:05;;;;;;;5.07;2.10;;;;;;;;;;5350057;26;20369;-82
2024/04/08 01:12:31;;;;;;;3.33;1.73;;;;;;;;;;5350177;26;20340;-82
2024/04/08 01:14:57;;;;;;;4.10;2.28;;;;;;;;;;5348235;26;20344;-82
2024/04/08 01:17:23;;;;;;;4.93;2.40;;;;;;;;;;5350160;26;20341;-82
2024/04/08 01:19:49;;;;;;;5.63;2.30;;;;;;;;;;5350006;26;20493;-82
2024/04/08 01:22:15;;;;;;;4.95;2.53;;;;;;;;;;5343526;26;20343;-82
2024/04/08 01:24:41;;;;;;;3.72;2.50;;;;;;;;;;5332458;26;20372;-82
2024/04/08 01:27:07;;;;;;;4.22;2.63;;;;;;;;;;5349973;26;20340;-82
2024/04/08 01:29:35;;;;;;;5.30;2.60;;;;;;;;;;5350343;26;20719;-82
2024/04/08 01:32:01;;;;;;;5.65;1.92;;;;;;;;;;5350528;26;20454;-81
2024/04/08 01:34:27;;;;;;;5.13;2.08;;;;;;;;;;5349955;26;20341;-82
2024/04/08 01:36:53;;;;;;;5.05;2.38;;;;;;;;;;5350151;26;20706;-82
2024/04/08 01:39:19;;;;;;;5.23;2.00;;;;;;;;;;5350217;26;20344;-82
2024/04/08 01:41:46;;;;;;;4.15;2.13;;;;;;;;;;5349993;26;20341;-82
2024/04/08 01:44:12;;;;;;;5.10;2.30;;;;;;;;;;5331164;26;20327;-82
2024/04/08 01:46:38;;;;;;;4.90;2.15;;;;;;;;;;5330593;26;20337;-82
2024/04/08 01:49:04;;;;;;;5.03;1.77;;;;;;;;;;5349874;26;20921;-82
2024/04/08 01:51:30;;;;;;;4.57;2.33;;;;;;;;;;5326390;26;20357;-82
2024/04/08 01:53:56;;;;;;;4.10;2.47;;;;;;;;;;5345067;26;20333;-82
2024/04/08 01:56:22;;;;;;;4.73;2.43;;;;;;;;;;5349841;26;20364;-82
2024/04/08 01:58:48;;;;;;;5.20;2.53;;;;;;;;;;5350092;26;20826;-82
2024/04/08 02:01:14;;;;;;;4.78;2.42;;;;;;;;;;5350305;26;20329;-82
2024/04/08 02:03:40;;;;;;;5.22;2.40;;;;;;;;;;5343061;26;20371;-82
2024/04/08 02:06:06;;;;;;;5.00;2.27;;;;;;;;;;5350316;26;20352;-82
2024/04/08 02:08:32;;;;;;;4.50;2.10;;;;;;;;;;5349469;26;20348;-82
2024/04/08 02:10:58;;;;;;;5.05;2.08;;;;;;;;;;5349893;26;20366;-82
2024/04/08 02:13:24;;;;;;;3.90;2.30;;;;;;;;;;5349361;26;20365;-82
2024/04/08 02:15:50;;;;;;;5.57;2.20;;;;;;;;;;5348863;26;20337;-82
2024/04/08 02:18:16;;;;;;;4.82;2.40;;;;;;;;;;5350042;26;20333;-82
2024/04/08 02:20:42;;;;;;;5.80;2.53;;;;;;;;;;5350447;26;20783;-82
2024/04/08 02:23:08;;;;;;;4.70;2.08;;;;;;;;;;5350139;26;20341;-82
2024/04/08 02:25:42;;;;;;;5.45;2.00;;;;;;;;;;5325900;26;20329;-82
2024/04/08 02:28:09;;;;;;;6.95;2.13;;;;;;;;;;5349122;26;20337;-82
2024/04/08 02:30:36;;;;;;;4.85;2.30;;;;;;;;;;5349584;26;20834;-82
2024/04/08 02:33:02;;;;;;;4.07;2.03;;;;;;;;;;5348953;26;20402;-82
2024/04/08 02:35:28;;;;;;;3.83;2.17;;;;;;;;;;5347879;26;20676;-82
2024/04/08 02:37:54;;;;;;;5.10;2.08;;;;;;;;;;5326592;26;20362;-82
2024/04/08 02:40:20;;;;;;;6.53;2.10;;;;;;;;;;5349344;26;20345;-82
2024/04/08 02:42:46;;;;;;;5.25;2.17;;;;;;;;;;5348886;26;20439;-82
2024/04/08 02:45:12;;;;;;;6.78;2.40;;;;;;;;;;5335381;26;20691;-82
2024/04/08 02:47:38;;;;;;;4.72;2.30;;;;;;;;;;5348645;26;20345;-82
2024/04/08 02:50:04;;;;;;;4.47;2.33;;;;;;;;;;5343543;26;20329;-82
2024/04/08 02:52:30;;;;;;;5.32;2.45;;;;;;;;;;5344884;26;20337;-82
2024/04/08 02:54:56;;;;;;;5.20;2.78;;;;;;;;;;5346939;26;20349;-82
2024/04/08 02:57:23;;;;;;;6.32;2.50;;;;;;;;;;5349159;26;20329;-82
2024/04/08 02:59:49;;;;;;;4.30;2.20;;;;;;;;;;5349336;26;20326;-82
2024/04/08 03:02:15;;;;;;;7.65;2.53;;;;;;;;;;5349245;26;20333;-82
2024/04/08 03:04:41;;;;;;;6.07;2.35;;;;;;;;;;5349706;26;20426;-82
2024/04/08 03:07:07;;;;;;;6.47;2.70;;;;;;;;;;5348637;26;20361;-82
2024/04/08 03:09:33;;;;;;;8.80;2.30;;;;;;;;;;5348568;26;20341;-82
2024/04/08 03:11:59;;;;;;;7.10;2.50;;;;;;;;;;5349540;26;20368;-82
2024/04/08 03:14:24;;;;;;;6.25;2.38;;;;;;;;;;5349267;26;20340;-82
2024/04/08 03:16:50;;;;;;;5.82;1.92;;;;;;;;;;5348721;26;20341;-81
2024/04/08 03:19:16;;;;;;;4.25;2.05;;;;;;;;;;5349068;26;20345;-82
2024/04/08 03:21:43;;;;;;;4.73;1.93;;;;;;;;;;5348795;26;20487;-82
2024/04/08 03:24:09;;;;;;;4.72;2.10;;;;;;;;;;5348457;26;20373;-82
2024/04/08 03:26:35;;;;;;;4.68;2.08;;;;;;;;;;5347029;26;20678;-82
2024/04/08 03:29:02;;;;;;;4.50;2.40;;;;;;;;;;5348078;26;20345;-82
2024/04/08 03:31:28;;;;;;;3.35;2.22;;;;;;;;;;5348607;26;20421;-82
2024/04/08 03:33:54;;;;;;;4.47;2.40;;;;;;;;;;5348955;26;20332;-82
2024/04/08 03:36:20;;;;;;;4.85;2.50;;;;;;;;;;5349355;26;20340;-82
2024/04/08 03:38:47;;;;;;;5.40;2.40;;;;;;;;;;5348733;26;20337;-82
2024/04/08 03:41:13;;;;;;;5.47;2.70;;;;;;;;;;5346809;26;20340;-82
2024/04/08 03:43:39;;;;;;;5.25;2.47;;;;;;;;;;5338291;26;21037;-82
2024/04/08 03:46:04;;;;;;;10.52;2.80;;;;;;;;;;5344860;26;20377;-82
2024/04/08 03:48:31;;;;;;;6.32;2.33;;;;;;;;;;5348536;26;20337;-82
2024/04/08 03:50:57;;;;;;;5.78;2.38;;;;;;;;;;5348422;26;20389;-82
2024/04/08 03:53:23;;;;;;;4.33;2.10;;;;;;;;;;5348246;26;20775;-82
2024/04/08 03:55:48;;;;;;;5.60;2.83;;;;;;;;;;5337548;26;20344;-81
2024/04/08 03:58:14;;;;;;;4.80;2.33;;;;;;;;;;5347985;26;20369;-82
2024/04/08 04:00:40;;;;;;;7.25;2.38;;;;;;;;;;5348704;26;20333;-82
2024/04/08 04:03:06;;;;;;;6.50;2.65;;;;;;;;;;5348369;26;20487;-81
2024/04/08 04:05:32;;;;;;;6.33;2.17;;;;;;;;;;5348223;26;20341;-82
2024/04/08 04:07:58;;;;;;;6.65;2.50;;;;;;;;;;5347817;26;20373;-82
2024/04/08 04:10:24;;;;;;;7.60;2.35;;;;;;;;;;5348193;26;20874;-82
2024/04/08 04:12:50;;;;;;;4.75;1.90;;;;;;;;;;5340278;26;20392;-82
2024/04/08 04:15:16;;;;;;;5.15;2.20;;;;;;;;;;5342013;26;20333;-82
2024/04/08 04:17:43;;;;;;;4.22;1.90;;;;;;;;;;5348111;26;20332;-82
2024/04/08 04:20:10;;;;;;;4.85;2.25;;;;;;;;;;5348296;26;20341;-82
2024/04/08 04:22:36;;;;;;;5.20;2.35;;;;;;;;;;5347587;26;20336;-82
2024/04/08 04:25:03;;;;;;;5.65;2.40;;;;;;;;;;5348170;26;20353;-82
2024/04/08 04:27:29;;;;;;;6.95;2.33;;;;;;;;;;5348145;26;20376;-82
2024/04/08 04:29:55;;;;;;;5.68;2.25;;;;;;;;;;5347691;26;20863;-82
2024/04/08 04:32:21;;;;;;;6.57;2.20;;;;;;;;;;5347520;26;20447;-82
2024/04/08 04:34:49;;;;;;;4.87;2.13;;;;;;;;;;5348045;26;20332;-81
2024/04/08 04:37:15;;;;;;;6.27;2.20;;;;;;;;;;5345820;26;20329;-82
2024/04/08 04:39:41;;;;;;;8.82;2.58;;;;;;;;;;5325037;26;20428;-81
2024/04/08 04:42:07;;;;;;;4.72;2.40;;;;;;;;;;5346996;26;20690;-82
2024/04/08 04:44:33;;;;;;;6.63;2.35;;;;;;;;;;5332570;26;20367;-82
2024/04/08 04:46:59;;;;;;;6.22;2.88;;;;;;;;;;5347299;26;20858;-82
2024/04/08 04:49:25;;;;;;;7.13;2.50;;;;;;;;;;5347335;26;20445;-82
2024/04/08 04:51:51;;;;;;;6.07;2.38;;;;;;;;;;5347598;26;20396;-82
2024/04/08 04:54:17;;;;;;;4.88;2.15;;;;;;;;;;5347587;26;20317;-82
2024/04/08 04:56:43;;;;;;;5.20;2.40;;;;;;;;;;5341509;26;20834;-82
2024/04/08 04:59:10;;;;;;;6.20;2.58;;;;;;;;;;5346351;26;20329;-81
2024/04/08 05:01:36;;;;;;;7.53;2.42;;;;;;;;;;5345104;26;20369;-82
2024/04/08 05:04:02;;;;;;;7.07;3.20;;;;;;;;;;5344509;26;20329;-82
2024/04/08 05:06:28;;;;;;;11.30;4.05;;;;;;;;;;5345683;26;20340;-82
2024/04/08 05:08:55;;;;;;;5.15;2.60;;;;;;;;;;5345407;26;20405;-82
2024/04/08 05:11:21;;;;;;;4.82;2.47;;;;;;;;;;5343981;26;20420;-82
2024/04/08 05:13:48;;;;;;;7.00;3.40;;;;;;;;;;5347949;26;20746;-81
2024/04/08 05:16:14;;;;;;;5.43;2.63;;;;;;;;;;5349416;26;20340;-82
2024/04/08 05:18:40;;;;;;;8.40;2.50;;;;;;;;;;5349207;26;20447;-82
2024/04/08 05:21:09;;;;;;;5.20;2.13;;;;;;;;;;5335683;26;20861;-82
2024/04/08 05:23:35;;;;;;;5.85;2.47;;;;;;;;;;5340030;26;20435;-82
2024/04/08 05:26:02;;;;;;;5.72;1.98;;;;;;;;;;5349038;26;20340;-82
2024/04/08 05:28:29;;;;;;;7.47;2.30;;;;;;;;;;5351355;26;20361;-82
2024/04/08 05:30:55;;;;;;;4.22;1.90;;;;;;;;;;5348599;26;20337;-82
2024/04/08 05:33:21;;;;;;;7.10;2.50;;;;;;;;;;5328137;26;20431;-81
2024/04/08 05:35:47;;;;;;;5.40;2.47;;;;;;;;;;5342232;26;20348;-81
2024/04/08 05:38:14;;;;;;;4.78;2.67;;;;;;;;;;5346895;26;20387;-81
2024/04/08 05:40:41;;;;;;;6.25;2.88;;;;;;;;;;5345350;26;20332;-81
2024/04/08 05:43:07;;;;;;;7.80;2.97;;;;;;;;;;5347865;26;20893;-81
2024/04/08 05:45:33;;;;;;;7.07;2.90;;;;;;;;;;5348558;26;20910;-81
2024/04/08 05:47:59;;;;;;;4.63;2.70;;;;;;;;;;5348004;26;20969;-81
2024/04/08 05:50:25;;;;;;;6.75;2.70;;;;;;;;;;5349165;26;20384;-82
2024/04/08 05:52:52;;;;;;;4.33;2.30;;;;;;;;;;5343095;26;20335;-81
2024/04/08 05:55:18;;;;;;;5.47;2.45;;;;;;;;;;5316583;26;20328;-81
2024/04/08 05:57:44;;;;;;;5.63;2.60;;;;;;;;;;5323556;26;20331;-81
2024/04/08 06:00:16;;;;;;;8.03;2.97;;;;;;;;;;5321754;26;20515;-81
2024/04/08 06:02:42;;;;;;;9.73;2.70;;;;;;;;;;5331646;26;20335;-81
2024/04/08 06:05:08;;;;;;;10.20;2.63;;;;;;;;;;5345998;26;20969;-81
2024/04/08 06:07:34;;;;;;;5.95;2.42;;;;;;;;;;5349358;26;20376;-81
2024/04/08 06:10:00;;;;;;;9.23;2.75;;;;;;;;;;5349999;26;20396;-80
2024/04/08 06:12:26;;;;;;;7.65;2.60;;;;;;;;;;5328392;26;20679;-81
2024/04/08 06:14:52;;;;;;;6.85;2.95;;;;;;;;;;5344469;26;20333;-81
2024/04/08 06:17:18;;;;;;;9.30;3.50;;;;;;;;;;5349226;26;20479;-81
2024/04/08 06:19:44;;;;;;;10.38;3.30;;;;;;;;;;5350671;26;20352;-81
2024/04/08 06:22:10;;;;;;;7.15;3.38;;;;;;;;;;5349331;26;20348;-81
2024/04/08 06:24:36;;;;;;;6.80;2.72;;;;;;;;;;5351245;26;20345;-81
2024/04/08 06:27:02;;;;;;;8.43;3.13;;;;;;;;;;5350334;26;20782;-81
2024/04/08 06:29:28;;;;;;;6.03;2.80;;;;;;;;;;5350722;26;20333;-80
2024/04/08 06:31:54;;;;;;;10.57;3.42;;;;;;;;;;5351276;26;20333;-81
2024/04/08 06:34:20;;;;;;;7.45;3.05;;;;;;;;;;5351048;26;20349;-81
2024/04/08 06:36:46;;;;;;;10.90;3.57;;;;;;;;;;5351154;26;20507;-81
2024/04/08 06:39:12;;;;;;;8.73;2.90;;;;;;;;;;5326170;26;20329;-81
2024/04/08 06:41:40;;;;;;;7.55;2.85;;;;;;;;;;5350462;26;20357;-80
2024/04/08 06:44:06;;;;;;;11.05;3.20;;;;;;;;;;5335580;26;20780;-81
2024/04/08 06:46:32;;;;;;;6.85;2.72;;;;;;;;;;5350619;26;20436;-81
2024/04/08 06:48:58;;;;;;;7.77;3.00;;;;;;;;;;5351189;26;20325;-81
2024/04/08 06:51:24;;;;;;;14.50;3.53;;;;;;;;;;5350929;26;20330;-82
2024/04/08 06:53:50;;;;;;;7.63;3.00;;;;;;;;;;5350805;26;20432;-81
2024/04/08 06:56:16;;;;;;;6.47;2.40;;;;;;;;;;5351435;26;20431;-81
2024/04/08 06:58:42;;;;;;;9.37;3.37;;;;;;;;;;5350002;26;20484;-81
2024/04/08 07:01:08;;;;;;;8.45;3.22;;;;;;;;;;5349757;26;20334;-80
2024/04/08 07:03:34;;;;;;;10.30;2.97;;;;;;;;;;5349467;26;20337;-81
2024/04/08 07:06:00;;;;;;;10.13;3.00;;;;;;;;;;5332597;26;20332;-81
2024/04/08 07:08:26;;;;;;;7.63;2.70;;;;;;;;;;5342798;26;20329;-81
2024/04/08 07:10:52;;;;;;;12.88;3.30;;;;;;;;;;5349668;26;20838;-81
2024/04/08 07:13:18;;;;;;;10.57;3.22;;;;;;;;;;5349699;26;20352;-80
2024/04/08 07:15:52;;;;;;;11.97;2.87;;;;;;;;;;5349624;26;20348;-81
2024/04/08 07:18:18;;;;;;;10.50;3.28;;;;;;;;;;5348985;26;20329;-80
2024/04/08 07:20:44;;;;;;;11.95;3.35;;;;;;;;;;5325182;26;20333;-81
2024/04/08 07:23:10;;;;;;;10.50;3.25;;;;;;;;;;5349085;26;20854;-81
2024/04/08 07:25:36;;;;;;;13.02;3.13;;;;;;;;;;5318964;26;20347;-80
2024/04/08 07:28:02;;;;;;;9.75;3.20;;;;;;;;;;5314183;26;20848;-81
2024/04/08 07:30:29;;;;;;;11.02;2.78;;;;;;;;;;5341368;26;20874;-80
2024/04/08 07:32:55;;;;;;;9.70;3.00;;;;;;;;;;5349002;26;20333;-81
2024/04/08 07:35:21;;;;;;;6.35;2.75;;;;;;;;;;5349239;26;20341;-80
2024/04/08 07:37:48;;;;;;;12.75;3.20;;;;;;;;;;5348808;26;20901;-81
2024/04/08 07:40:14;;;;;;;12.23;3.70;;;;;;;;;;5349206;26;20834;-81
2024/04/08 07:42:40;;;;;;;11.60;3.15;;;;;;;;;;5324223;26;20357;-81
2024/04/08 07:45:07;;;;;;;10.88;3.00;;;;;;;;;;5317391;26;20368;-81
2024/04/08 07:47:33;;;;;;;5.95;2.80;;;;;;;;;;5338637;26;20341;-81
2024/04/08 07:49:59;;;;;;;13.85;3.45;;;;;;;;;;5328739;26;20664;-81
2024/04/08 07:52:26;;;;;;;11.20;3.42;;;;;;;;;;5348927;26;20419;-80
2024/04/08 07:54:52;;;;;;;11.68;3.50;;;;;;;;;;5325471;26;20373;-81
2024/04/08 07:57:19;;;;;;;9.40;3.10;;;;;;;;;;5349292;26;20349;-81
2024/04/08 07:59:45;;;;;;;13.20;3.20;;;;;;;;;;5349207;26;20389;-80
2024/04/08 08:02:11;;;;;;;11.55;3.28;;;;;;;;;;5348729;26;20380;-81
2024/04/08 08:04:37;;;;;;;10.57;3.15;;;;;;;;;;5348371;26;20450;-81
2024/04/08 08:07:03;;;;;;;11.27;3.50;;;;;;;;;;5348674;26;20333;-81
2024/04/08 08:09:29;;;;;;;9.73;3.70;;;;;;;;;;5348854;26;20344;-81
2024/04/08 08:11:55;;;;;;;15.80;3.80;;;;;;;;;;5348279;26;20431;-81
2024/04/08 08:14:21;;;;;;;13.55;3.75;;;;;;;;;;5332488;26;20351;-81
2024/04/08 08:16:47;;;;;;;10.65;3.63;;;;;;;;;;5339598;26;20352;-81
2024/04/08 08:19:13;;;;;;;11.25;3.50;;;;;;;;;;5348564;26;20344;-81
2024/04/08 08:21:39;;;;;;;9.93;3.10;;;;;;;;;;5326870;26;20372;-81
2024/04/08 08:24:05;;;;;;;13.15;3.67;;;;;;;;;;5342628;26;20440;-82
2024/04/08 08:26:32;;;;;;;11.35;3.55;;;;;;;;;;5348638;26;20473;-81
2024/04/08 08:28:58;;;;;;;11.48;3.40;;;;;;;;;;5348897;26;20336;-81
2024/04/08 08:31:24;;;;;;;13.00;4.28;;;;;;;;;;5348355;26;20420;-81
2024/04/08 08:33:50;;;;;;;12.82;4.38;;;;;;;;;;5317779;26;20339;-81
2024/04/08 08:36:16;;;;;;;14.57;3.90;;;;;;;;;;5348819;26;20332;-83
2024/04/08 08:38:42;;;;;;;15.68;4.50;;;;;;;;;;5348767;26;20388;-81
2024/04/08 08:41:08;;;;;;;14.35;4.10;;;;;;;;;;5348545;26;20357;-81
2024/04/08 08:43:39;;;;;;;10.88;3.75;;;;;;;;;;5328323;26;20438;-82
2024/04/08 08:46:05;;;;;;;15.93;3.92;;;;;;;;;;5345105;26;20333;-81
2024/04/08 08:48:31;;;;;;;10.38;3.97;;;;;;;;;;5348573;26;20751;-81
2024/04/08 08:50:58;;;;;;;15.23;3.63;;;;;;;;;;5339857;26;20404;-81
2024/04/08 08:53:24;;;;;;;14.63;3.90;;;;;;;;;;5348230;26;20333;-81
2024/04/08 08:55:51;;;;;;;14.73;3.88;;;;;;;;;;5346213;26;20337;-81
2024/04/08 08:58:17;;;;;;;12.03;3.63;;;;;;;;;;5348347;26;20970;-81
2024/04/08 09:00:44;;;;;;;13.52;4.40;;;;;;;;;;5333803;26;20817;-81
2024/04/08 09:03:11;;;;;;;13.07;3.70;;;;;;;;;;5338449;26;20333;-81
2024/04/08 09:05:37;;;;;;;13.33;3.57;;;;;;;;;;5346073;26;20348;-81
2024/04/08 09:08:04;;;;;;;21.15;4.05;;;;;;;;;;5348154;26;20360;-81
2024/04/08 09:10:43;;;;;;;9.97;3.40;;;;;;;;;;5323541;26;20332;-81
2024/04/08 09:13:19;;;;;;;11.38;3.15;;;;;;;;;;5347010;26;20344;-81
2024/04/08 09:15:45;;;;;;;15.68;3.80;;;;;;;;;;5347153;26;20337;-81
2024/04/08 09:18:11;;;;;;;19.27;4.80;;;;;;;;;;5347897;26;20835;-82
2024/04/08 09:20:37;;;;;;;10.23;3.65;;;;;;;;;;5340844;26;20376;-81
2024/04/08 09:23:03;;;;;;;13.20;3.50;;;;;;;;;;5331313;26;20428;-81
2024/04/08 09:25:30;;;;;;;13.02;3.72;;;;;;;;;;5350200;26;20337;-81
2024/04/08 09:27:56;;;;;;;16.48;3.70;;;;;;;;;;5336870;26;20380;-81
2024/04/08 09:30:22;;;;;;;8.52;2.90;;;;;;;;;;5341023;26;20328;-81
2024/04/08 09:32:48;;;;;;;11.30;3.70;;;;;;;;;;5351929;26;20870;-81
2024/04/08 09:35:16;;;;;;;16.45;4.18;;;;;;;;;;5352004;26;20329;-81
2024/04/08 09:37:42;;;;;;;11.75;3.50;;;;;;;;;;5350747;26;20365;-81
2024/04/08 09:40:08;;;;;;;17.75;3.42;;;;;;;;;;5351394;26;20361;-81
2024/04/08 09:42:35;;;;;;;12.57;3.40;;;;;;;;;;5326881;26;20373;-82
2024/04/08 09:45:03;;;;;;;14.52;3.60;;;;;;;;;;5336652;26;20341;-81
2024/04/08 09:47:30;;;;;;;12.27;3.53;;;;;;;;;;5350910;26;20455;-81
2024/04/08 09:49:59;;;;;;;9.55;2.95;;;;;;;;;;5351249;26;20470;-81
2024/04/08 09:52:25;;;;;;;12.35;2.92;;;;;;;;;;5351268;26;20424;-81
2024/04/08 09:54:54;;;;;;;9.40;3.13;;;;;;;;;;5327260;26;20348;-81
2024/04/08 09:57:24;;;;;;;17.38;3.53;;;;;;;;;;5351586;26;20348;-82
2024/04/08 09:59:53;;;;;;;10.30;2.78;;;;;;;;;;5352635;26;20396;-82
2024/04/08 10:02:25;;;;;;;12.77;3.25;;;;;;;;;;5339399;26;20701;-82
2024/04/08 10:04:56;;;;;;;11.63;3.30;;;;;;;;;;5342855;26;20432;-82
2024/04/08 10:07:22;;;;;;;11.52;2.97;;;;;;;;;;5353013;26;20349;-82
2024/04/08 10:09:48;;;;;;;11.43;3.15;;;;;;;;;;5351988;26;20341;-82
2024/04/08 10:12:14;;;;;;;10.73;2.80;;;;;;;;;;5351875;26;20340;-82
2024/04/08 10:14:40;;;;;;;12.13;2.95;;;;;;;;;;5333027;26;20375;-82
2024/04/08 10:17:08;;;;;;;7.80;2.43;;;;;;;;;;5346453;26;20413;-82
2024/04/08 10:19:34;;;;;;;8.88;2.17;;;;;;;;;;5352096;26;20417;-82
2024/04/08 10:22:01;;;;;;;9.80;2.47;;;;;;;;;;5351522;26;20337;-82
2024/04/08 10:24:29;;;;;;;11.40;2.53;;;;;;;;;;5351166;26;20437;-82
2024/04/08 10:27:05;;;;;;;14.05;2.70;;;;;;;;;;5351242;26;20851;-82
2024/04/08 10:29:37;;;;;;;13.27;2.45;;;;;;;;;;5323867;26;20368;-82
2024/04/08 10:32:04;;;;;;;5.75;2.08;;;;;;;;;;5341676;26;20337;-82
2024/04/08 10:34:30;;;;;;;9.32;2.50;;;;;;;;;;5351263;26;20336;-81
2024/04/08 10:36:56;;;;;;;7.65;2.15;;;;;;;;;;5345740;26;20373;-81
2024/04/08 10:39:26;;;;;;;8.15;2.17;;;;;;;;;;5315159;26;20927;-82
2024/04/08 10:41:53;;;;;;;9.60;2.20;;;;;;;;;;5316489;26;20367;-82
2024/04/08 10:44:19;;;;;;;10.23;2.28;;;;;;;;;;5337226;26;20340;-81
2024/04/08 10:46:45;;;;;;;11.60;2.25;;;;;;;;;;5351055;26;20377;-81
2024/04/08 10:49:10;;;;;;;10.85;2.58;;;;;;;;;;5337553;26;20447;-81
2024/04/08 10:51:36;;;;;;;8.45;2.40;;;;;;;;;;5350398;26;20436;-81
2024/04/08 10:54:03;;;;;;;11.13;2.67;;;;;;;;;;5348335;26;20390;-81
2024/04/08 10:56:28;;;;;;;9.90;2.50;;;;;;;;;;5351050;26;20348;-82
2024/04/08 10:58:54;;;;;;;13.85;2.55;;;;;;;;;;5350697;26;20352;-81
2024/04/08 11:01:21;;;;;;;13.88;2.60;;;;;;;;;;5350789;26;20765;-81
2024/04/08 11:03:47;;;;;;;13.90;4.25;;;;;;;;;;5340915;26;20335;-81
2024/04/08 11:06:14;;;;;;;8.07;2.30;;;;;;;;;;5336652;26;20369;-81
2024/04/08 11:08:40;;;;;;;8.25;2.28;;;;;;;;;;5349856;26;20683;-80
2024/04/08 11:11:06;;;;;;;10.32;2.58;;;;;;;;;;5332741;26;20354;-81
2024/04/08 11:13:32;;;;;;;13.75;2.83;;;;;;;;;;5342889;26;20337;-82
2024/04/08 11:15:59;;;;;;;9.27;2.50;;;;;;;;;;5350291;26;20395;-83
2024/04/08 11:18:25;;;;;;;12.73;2.90;;;;;;;;;;5350455;26;20901;-82
2024/04/08 11:20:51;;;;;;;5.83;2.53;;;;;;;;;;5351182;26;20333;-82
2024/04/08 11:23:19;;;;;;;10.65;2.83;;;;;;;;;;5350419;26;20336;-82
2024/04/08 11:25:45;;;;;;;10.27;2.85;;;;;;;;;;5339639;26;20337;-82
2024/04/08 11:28:11;;;;;;;12.25;2.78;;;;;;;;;;5332245;26;20328;-81
2024/04/08 11:30:38;;;;;;;9.65;2.33;;;;;;;;;;5343698;26;20692;-82
2024/04/08 11:33:04;;;;;;;7.85;2.50;;;;;;;;;;5349858;26;20428;-82
2024/04/08 11:35:30;;;;;;;14.82;2.83;;;;;;;;;;5350059;26;20325;-81
2024/04/08 11:37:56;;;;;;;12.07;3.20;;;;;;;;;;5350035;26;20416;-82
2024/04/08 11:40:22;;;;;;;11.40;2.80;;;;;;;;;;5350143;26;20337;-82
2024/04/08 11:42:48;;;;;;;11.30;3.00;;;;;;;;;;5349686;26;20345;-81
2024/04/08 11:45:14;;;;;;;14.30;2.65;;;;;;;;;;5336799;26;20392;-82
2024/04/08 11:47:40;;;;;;;12.32;2.67;;;;;;;;;;5347977;26;20337;-81
2024/04/08 11:50:07;;;;;;;13.93;3.10;;;;;;;;;;5349656;26;20373;-81
2024/04/08 11:52:33;;;;;;;12.43;2.60;;;;;;;;;;5349740;26;20332;-81
2024/04/08 11:54:59;;;;;;;10.15;2.60;;;;;;;;;;5349730;26;20332;-80
2024/04/08 11:57:25;;;;;;;12.70;3.00;;;;;;;;;;5333517;26;20855;-80
2024/04/08 11:59:51;;;;;;;13.90;2.85;;;;;;;;;;5341676;26;20830;-81
2024/04/08 12:02:17;;;;;;;9.52;2.60;;;;;;;;;;5348934;26;20333;-80
2024/04/08 12:04:46;;;;;;;11.07;2.83;;;;;;;;;;5349458;26;20376;-82
2024/04/08 12:07:13;;;;;;;12.65;2.60;;;;;;;;;;5349735;26;20345;-81
2024/04/08 12:09:41;;;;;;;11.40;3.05;;;;;;;;;;5349879;26;20368;-81
2024/04/08 12:12:09;;;;;;;11.73;2.83;;;;;;;;;;5349141;26;20361;-81
2024/04/08 12:14:35;;;;;;;8.00;2.30;;;;;;;;;;5350201;26;20333;-81
2024/04/08 12:17:01;;;;;;;10.68;2.80;;;;;;;;;;5349752;26;20447;-81
2024/04/08 12:19:28;;;;;;;11.33;2.30;;;;;;;;;;5334842;26;20446;-81
2024/04/08 12:21:54;;;;;;;14.85;2.60;;;;;;;;;;5340655;26;20337;-81
2024/04/08 12:24:20;;;;;;;14.57;2.47;;;;;;;;;;5349379;26;20382;-80
2024/04/08 12:26:46;;;;;;;9.18;2.35;;;;;;;;;;5350079;26;20325;-81
2024/04/08 12:29:12;;;;;;;9.55;2.55;;;;;;;;;;5349675;26;20333;-81
2024/04/08 12:31:38;;;;;;;11.25;2.55;;;;;;;;;;5346434;26;20898;-81
2024/04/08 12:34:04;;;;;;;7.07;2.53;;;;;;;;;;5349336;26;20430;-82
2024/04/08 12:36:30;;;;;;;15.65;2.67;;;;;;;;;;5332469;26;20379;-81
2024/04/08 12:38:56;;;;;;;6.28;2.30;;;;;;;;;;5340947;26;20468;-81
2024/04/08 12:41:22;;;;;;;10.00;2.58;;;;;;;;;;5349373;26;20364;-81
2024/04/08 12:43:48;;;;;;;10.57;2.80;;;;;;;;;;5339563;26;20834;-81
2024/04/08 12:46:15;;;;;;;8.77;2.70;;;;;;;;;;5348687;26;20336;-81
2024/04/08 12:48:40;;;;;;;11.10;2.42;;;;;;;;;;5347938;26;20366;-81
2024/04/08 12:51:07;;;;;;;7.60;2.67;;;;;;;;;;5322866;26;20508;-80
2024/04/08 12:53:33;;;;;;;8.88;2.67;;;;;;;;;;5347513;26;20446;-80
2024/04/08 12:55:59;;;;;;;10.88;2.45;;;;;;;;;;5348522;26;20337;-80
2024/04/08 12:58:25;;;;;;;11.13;2.65;;;;;;;;;;5348181;26;20325;-81
2024/04/08 13:00:51;;;;;;;17.75;3.13;;;;;;;;;;5351492;26;20355;-81
2024/04/08 13:03:17;;;;;;;9.15;2.60;;;;;;;;;;5351769;26;20353;-80
2024/04/08 13:05:48;;;;;;;9.82;2.42;;;;;;;;;;5351614;26;20329;-81
2024/04/08 13:08:14;;;;;;;17.25;3.05;;;;;;;;;;5351804;26;20885;-81
2024/04/08 13:10:40;;;;;;;18.92;3.00;;;;;;;;;;5328622;26;20748;-80
2024/04/08 13:13:06;;;;;;;9.68;2.83;;;;;;;;;;5353116;26;20337;-82
2024/04/08 13:15:32;;;;;;;14.93;3.30;;;;;;;;;;5351903;26;20365;-81
2024/04/08 13:17:58;;;;;;;11.63;3.08;;;;;;;;;;5352702;26;20333;-81
2024/04/08 13:20:24;;;;;;;19.58;3.08;;;;;;;;;;5352556;26;20329;-81
2024/04/08 13:22:50;;;;;;;12.73;2.73;;;;;;;;;;5337939;26;20486;-82
2024/04/08 13:25:17;;;;;;;9.87;2.77;;;;;;;;;;5342479;26;20850;-80
2024/04/08 13:27:43;;;;;;;11.27;2.75;;;;;;;;;;5351468;26;20337;-82
2024/04/08 13:30:10;;;;;;;13.73;3.20;;;;;;;;;;5351658;26;20787;-81
2024/04/08 13:32:36;;;;;;;8.93;2.65;;;;;;;;;;5351504;26;20340;-81
2024/04/08 13:35:04;;;;;;;14.30;3.00;;;;;;;;;;5351427;26;20328;-81
2024/04/08 13:37:30;;;;;;;14.13;3.47;;;;;;;;;;5346632;26;20351;-82
2024/04/08 13:39:56;;;;;;;14.75;4.07;;;;;;;;;;5333962;26;20413;-82
2024/04/08 13:42:22;;;;;;;13.02;3.13;;;;;;;;;;5352934;26;20333;-82
2024/04/08 13:44:51;;;;;;;13.27;3.47;;;;;;;;;;5325475;26;20400;-82
2024/04/08 13:47:17;;;;;;;16.95;3.40;;;;;;;;;;5342712;26;20838;-82
2024/04/08 13:49:43;;;;;;;21.48;3.28;;;;;;;;;;5353445;26;20345;-82
2024/04/08 13:52:10;;;;;;;12.87;3.13;;;;;;;;;;5353861;26;20450;-82
2024/04/08 13:54:36;;;;;;;16.93;3.50;;;;;;;;;;5329100;26;20348;-82
2024/04/08 13:57:02;;;;;;;14.73;5.10;;;;;;;;;;5353112;26;20321;-82
2024/04/08 13:59:28;;;;;;;18.77;3.58;;;;;;;;;;5353229;26;20321;-82
2024/04/08 14:01:54;;;;;;;14.60;3.92;;;;;;;;;;5353083;26;20325;-82
2024/04/08 14:04:20;;;;;;;17.15;3.70;;;;;;;;;;5352920;26;20332;-82
2024/04/08 14:06:46;;;;;;;17.17;3.90;;;;;;;;;;5353086;26;20445;-82
2024/04/08 14:09:13;;;;;;;16.87;3.50;;;;;;;;;;5353363;26;20325;-82
2024/04/08 14:11:39;;;;;;;17.47;3.60;;;;;;;;;;5352085;26;20354;-82
2024/04/08 14:14:05;;;;;;;20.80;4.00;;;;;;;;;;5352779;26;20328;-81
2024/04/08 14:16:31;;;;;;;16.35;4.10;;;;;;;;;;5350822;26;20325;-81
2024/04/08 14:18:57;;;;;;;20.42;4.63;;;;;;;;;;5350434;26;20333;-81
2024/04/08 14:21:23;;;;;;;20.50;3.83;;;;;;;;;;5351470;26;20838;-81
2024/04/08 14:23:49;;;;;;;14.20;4.33;;;;;;;;;;5350151;26;20496;-81
2024/04/08 14:26:16;;;;;;;17.67;3.53;;;;;;;;;;5351302;26;20874;-81
2024/04/08 14:28:44;;;;;;;16.27;4.05;;;;;;;;;;5351048;26;20325;-81
2024/04/08 14:31:10;;;;;;;14.82;3.85;;;;;;;;;;5338780;26;20339;-81
2024/04/08 14:33:36;;;;;;;15.73;3.65;;;;;;;;;;5318558;26;20383;-80